Time;durP1;ratioP1;P1;durP2;ratioP2;P2;SDS_P1;SDS_P2;PMS_P1;PMS_P2;Temp;Humidity;BMP_temperature;BMP_pressure;BME280_temperature;BME280_humidity;BME280_pressure;Samples;Min_cycle;Max_cycle;Signal;HPM_P1;HPM_P2
2022/12/07 00:00:12;;;;;;;;;;;20.90;64.70;;;;;;1502246;78;725;-60
2022/12/07 00:02:14;;;;;;;;;;;20.90;64.80;;;;;;1504649;77;707;-60
2022/12/07 00:04:16;;;;;;;;;;;20.90;64.70;;;;;;1505536;78;654;-60
2022/12/07 00:06:18;;;;;;;;;;;20.90;64.80;;;;;;1510639;78;734;-60
2022/12/07 00:08:20;;;;;;;;;;;20.90;64.70;;;;;;1501182;77;1131;-60
2022/12/07 00:10:22;;;;;;;;;;;20.90;64.70;;;;;;1504461;78;1938;-61
2022/12/07 00:12:24;;;;;;;;;;;20.90;64.70;;;;;;1504427;78;715;-60
2022/12/07 00:14:26;;;;;;;;;;;20.90;64.70;;;;;;1504307;78;711;-61
2022/12/07 00:16:29;;;;;;;;;;;21.00;64.80;;;;;;1502882;77;630;-62
2022/12/07 00:18:31;;;;;;;;;;;21.00;64.80;;;;;;1505459;78;1207;-61
2022/12/07 00:20:33;;;;;;;;;;;20.90;64.90;;;;;;1503086;78;703;-61
2022/12/07 00:22:34;;;;;;;;;;;21.00;64.90;;;;;;1509024;77;806;-61
2022/12/07 00:24:36;;;;;;;;;;;21.00;64.80;;;;;;1507017;78;710;-61
2022/12/07 00:26:39;;;;;;;;;;;21.00;64.90;;;;;;1504497;78;770;-61
2022/12/07 00:28:41;;;;;;;;;;;20.90;64.80;;;;;;1502902;78;1154;-60
2022/12/07 00:30:42;;;;;;;;;;;20.90;64.90;;;;;;1502194;77;1939;-60
2022/12/07 00:32:44;;;;;;;;;;;20.90;65.00;;;;;;1508802;77;677;-60
2022/12/07 00:34:46;;;;;;;;;;;21.00;64.90;;;;;;1503816;78;803;-61
2022/12/07 00:36:48;;;;;;;;;;;20.90;64.90;;;;;;1503844;77;1199;-60
2022/12/07 00:38:50;;;;;;;;;;;21.00;64.80;;;;;;1507363;78;1146;-61
2022/12/07 00:40:56;;;;;;;;;;;20.90;64.80;;;;;;1512335;78;785;-61
2022/12/07 00:42:58;;;;;;;;;;;21.00;65.00;;;;;;1516878;78;685;-62
2022/12/07 00:45:00;;;;;;;;;;;20.90;65.00;;;;;;1502248;77;685;-61
2022/12/07 00:47:02;;;;;;;;;;;20.90;64.90;;;;;;1502457;78;714;-62
2022/12/07 00:49:04;;;;;;;;;;;20.90;64.90;;;;;;1502861;78;1139;-62
2022/12/07 00:51:05;;;;;;;;;;;20.90;65.00;;;;;;1504009;78;1933;-61
2022/12/07 00:53:07;;;;;;;;;;;20.90;65.00;;;;;;1501371;78;768;-61
2022/12/07 00:55:09;;;;;;;;;;;20.90;65.00;;;;;;1495851;77;786;-61
2022/12/07 00:57:11;;;;;;;;;;;20.90;65.10;;;;;;1502920;78;643;-61
2022/12/07 00:59:17;;;;;;;;;;;20.90;65.10;;;;;;1499883;77;1129;-62
2022/12/07 01:01:17;;;;;;;;;;;20.90;65.10;;;;;;1502997;78;1153;-61
2022/12/07 01:03:19;;;;;;;;;;;20.90;65.20;;;;;;1506459;78;1049;-61
2022/12/07 01:05:20;;;;;;;;;;;20.90;65.20;;;;;;1510553;78;674;-61
2022/12/07 01:07:22;;;;;;;;;;;20.90;65.20;;;;;;1500367;77;620;-61
2022/12/07 01:09:24;;;;;;;;;;;20.90;65.20;;;;;;1505076;77;1129;-61
2022/12/07 01:11:27;;;;;;;;;;;20.90;65.20;;;;;;1502896;77;1942;-61
2022/12/07 01:13:29;;;;;;;;;;;20.90;65.30;;;;;;1503497;77;648;-61
2022/12/07 01:15:31;;;;;;;;;;;20.80;65.20;;;;;;1499189;77;749;-60
2022/12/07 01:17:33;;;;;;;;;;;20.80;65.20;;;;;;1508291;78;714;-61
2022/12/07 01:19:35;;;;;;;;;;;20.90;65.20;;;;;;1509355;77;1168;-62
2022/12/07 01:21:37;;;;;;;;;;;20.80;65.10;;;;;;1499822;78;634;-61
2022/12/07 01:23:39;;;;;;;;;;;20.80;65.10;;;;;;1471099;79;790;-61
2022/12/07 01:25:41;;;;;;;;;;;20.80;65.00;;;;;;1470912;79;757;-61
2022/12/07 01:27:43;;;;;;;;;;;20.80;65.10;;;;;;1546950;75;733;-61
2022/12/07 01:29:44;;;;;;;;;;;20.90;65.20;;;;;;1565154;75;1127;-61
2022/12/07 01:31:48;;;;;;;;;;;20.90;65.20;;;;;;1547259;75;1945;-61
2022/12/07 01:33:51;;;;;;;;;;;20.90;65.20;;;;;;1548235;75;1366;-61
2022/12/07 01:35:53;;;;;;;;;;;20.80;65.00;;;;;;1551208;75;747;-61
2022/12/07 01:37:55;;;;;;;;;;;20.80;65.00;;;;;;1546681;75;1156;-60
2022/12/07 01:39:57;;;;;;;;;;;20.90;65.20;;;;;;1549566;75;754;-60
2022/12/07 01:41:58;;;;;;;;;;;20.90;65.20;;;;;;1551067;75;654;-60
2022/12/07 01:44:18;;;;;;;;;;;20.90;65.10;;;;;;1554222;75;717;-62
2022/12/07 01:46:20;;;;;;;;;;;21.00;65.20;;;;;;1536325;75;721;-60
2022/12/07 01:48:23;;;;;;;;;;;20.90;65.20;;;;;;1545643;75;1152;-62
2022/12/07 01:50:26;;;;;;;;;;;20.90;65.20;;;;;;1546987;75;764;-60
2022/12/07 01:52:30;;;;;;;;;;;20.90;65.30;;;;;;1549833;75;1929;-60
2022/12/07 01:54:31;;;;;;;;;;;20.90;65.30;;;;;;1553805;75;780;-60
2022/12/07 01:56:33;;;;;;;;;;;20.90;65.30;;;;;;1561350;75;710;-60
2022/12/07 01:58:35;;;;;;;;;;;21.00;65.20;;;;;;1541968;75;1135;-59
2022/12/07 02:00:37;;;;;;;;;;;20.90;65.20;;;;;;1565225;75;699;-59
2022/12/07 02:02:41;;;;;;;;;;;21.00;65.20;;;;;;1555518;75;684;-60
2022/12/07 02:04:42;;;;;;;;;;;20.90;65.10;;;;;;1540251;75;1487;-60
2022/12/07 02:06:45;;;;;;;;;;;21.00;65.10;;;;;;1555628;72;232883;-76
2022/12/07 02:08:47;;;;;;;;;;;20.90;65.30;;;;;;1552083;75;775;-76
2022/12/07 02:10:49;;;;;;;;;;;20.90;65.50;;;;;;1549873;75;774;-78
2022/12/07 02:12:58;;;;;;;;;;;21.00;65.30;;;;;;1541530;75;745;-79
2022/12/07 02:15:00;;;;;;;;;;;21.00;64.90;;;;;;1556668;75;691;-78
2022/12/07 02:17:12;;;;;;;;;;;21.00;64.90;;;;;;1552776;75;1157;-81
2022/12/07 02:19:19;;;;;;;;;;;21.00;64.90;;;;;;1550329;76;987;-80
2022/12/07 02:21:25;;;;;;;;;;;21.00;65.00;;;;;;1545471;76;1022;-79
2022/12/07 02:23:32;;;;;;;;;;;21.00;65.00;;;;;;1549649;76;792;-77
2022/12/07 02:25:35;;;;;;;;;;;21.00;65.00;;;;;;1547839;76;699;-78
2022/12/07 02:27:47;;;;;;;;;;;21.00;65.00;;;;;;1540817;75;1104;-80
2022/12/07 02:29:59;;;;;;;;;;;20.90;65.10;;;;;;1549330;76;1612;-80
2022/12/07 02:32:02;;;;;;;;;;;21.00;65.10;;;;;;1559275;75;1911;-82
2022/12/07 02:34:12;;;;;;;;;;;21.00;65.10;;;;;;1539527;76;1105;-79
2022/12/07 02:36:15;;;;;;;;;;;21.00;65.00;;;;;;1548839;76;1115;-78
2022/12/07 02:38:35;;;;;;;;;;;21.00;65.00;;;;;;1549662;76;1036;-78
2022/12/07 02:40:51;;;;;;;;;;;21.00;65.00;;;;;;1551287;76;709;-79
2022/12/07 02:42:54;;;;;;;;;;;21.00;64.90;;;;;;1548691;76;835;-78
2022/12/07 02:44:56;;;;;;;;;;;21.00;64.90;;;;;;1555564;75;1826;-77
2022/12/07 02:46:59;;;;;;;;;;;21.00;64.90;;;;;;1549154;75;1102;-79
2022/12/07 02:49:01;;;;;;;;;;;21.00;64.90;;;;;;1548901;76;741;-77
2022/12/07 02:51:02;;;;;;;;;;;21.00;64.90;;;;;;1547575;76;1941;-76
2022/12/07 02:53:04;;;;;;;;;;;21.00;64.90;;;;;;1548226;76;771;-78
2022/12/07 02:55:07;;;;;;;;;;;21.00;64.80;;;;;;1549190;76;734;-77
2022/12/07 02:57:28;;;;;;;;;;;21.00;64.80;;;;;;1548650;75;1185;-79
2022/12/07 02:59:45;;;;;;;;;;;21.00;64.90;;;;;;1477976;79;1044;-75
2022/12/07 03:01:51;;;;;;;;;;;21.00;64.90;;;;;;1475489;79;752;-78
2022/12/07 03:03:55;;;;;;;;;;;20.90;64.80;;;;;;1473216;79;649;-76
2022/12/07 03:05:58;;;;;;;;;;;20.90;64.80;;;;;;1544467;76;1119;-78
2022/12/07 03:08:01;;;;;;;;;;;20.90;64.80;;;;;;1548490;76;814;-78
2022/12/07 03:10:05;;;;;;;;;;;21.00;64.80;;;;;;1549365;76;769;-78
2022/12/07 03:12:12;;;;;;;;;;;21.00;64.80;;;;;;1551212;75;1911;-78
2022/12/07 03:14:24;;;;;;;;;;;20.90;64.80;;;;;;1541854;76;679;-78
2022/12/07 03:16:31;;;;;;;;;;;20.90;64.80;;;;;;1549026;75;1181;-78
2022/12/07 03:18:34;;;;;;;;;;;21.00;64.80;;;;;;1546135;76;702;-76
2022/12/07 03:20:36;;;;;;;;;;;21.00;64.70;;;;;;1546155;76;924;-78
2022/12/07 03:22:38;;;;;;;;;;;21.00;64.70;;;;;;1547901;76;789;-78
2022/12/07 03:24:42;;;;;;;;;;;21.00;64.80;;;;;;1547706;76;1200;-77
2022/12/07 03:26:48;;;;;;;;;;;21.00;64.70;;;;;;1549216;76;1134;-79
2022/12/07 03:28:52;;;;;;;;;;;21.10;64.80;;;;;;1544917;75;735;-78
2022/12/07 03:30:55;;;;;;;;;;;21.10;64.70;;;;;;1549060;76;702;-78
2022/12/07 03:33:04;;;;;;;;;;;21.00;64.70;;;;;;1557645;76;1951;-76
2022/12/07 03:35:08;;;;;;;;;;;21.10;64.80;;;;;;1524401;77;777;-79
2022/12/07 03:37:11;;;;;;;;;;;21.00;64.70;;;;;;1522098;78;1142;-77
2022/12/07 03:39:31;;;;;;;;;;;21.10;64.80;;;;;;1548910;76;1055;-79
2022/12/07 03:41:33;;;;;;;;;;;21.10;64.80;;;;;;1547767;76;848;-77
2022/12/07 03:43:35;;;;;;;;;;;21.10;64.80;;;;;;1550240;76;809;-78
2022/12/07 03:45:40;;;;;;;;;;;21.20;64.80;;;;;;1546454;76;733;-78
2022/12/07 03:47:44;;;;;;;;;;;21.20;64.80;;;;;;1550208;75;1077;-79
2022/12/07 03:49:50;;;;;;;;;;;21.10;64.80;;;;;;1549111;76;1600;-79
2022/12/07 03:51:56;;;;;;;;;;;21.10;64.80;;;;;;1545963;76;1921;-78
2022/12/07 03:53:59;;;;;;;;;;;21.10;64.90;;;;;;1545348;76;708;-78
2022/12/07 03:56:01;;;;;;;;;;;21.20;64.90;;;;;;1549885;75;1136;-79
2022/12/07 03:58:05;;;;;;;;;;;21.10;64.80;;;;;;1548804;75;720;-76
2022/12/07 04:00:07;;;;;;;;;;;21.20;64.80;;;;;;1547442;76;1123;-77
2022/12/07 04:02:09;;;;;;;;;;;21.20;64.80;;;;;;1548971;76;707;-77
2022/12/07 04:04:11;;;;;;;;;;;21.10;64.80;;;;;;1532070;77;1357;-76
2022/12/07 04:06:13;;;;;;;;;;;21.10;65.00;;;;;;1549422;75;1133;-77
2022/12/07 04:08:15;;;;;;;;;;;21.20;65.00;;;;;;1550021;75;813;-78
2022/12/07 04:10:17;;;;;;;;;;;21.20;65.10;;;;;;1549640;76;736;-78
2022/12/07 04:12:19;;;;;;;;;;;21.20;65.10;;;;;;1550259;75;1927;-78
2022/12/07 04:14:20;;;;;;;;;;;21.20;65.00;;;;;;1549936;75;711;-78
2022/12/07 04:16:22;;;;;;;;;;;21.20;65.00;;;;;;1551342;75;1200;-79
2022/12/07 04:18:24;;;;;;;;;;;21.30;65.20;;;;;;1550347;76;742;-77
2022/12/07 04:20:26;;;;;;;;;;;21.30;65.00;;;;;;1549441;76;706;-78
2022/12/07 04:22:28;;;;;;;;;;;21.30;65.00;;;;;;1541401;76;1491;-77
2022/12/07 04:24:30;;;;;;;;;;;21.30;64.90;;;;;;1551211;76;730;-77
2022/12/07 04:26:32;;;;;;;;;;;21.30;64.90;;;;;;1548730;75;1273;-78
2022/12/07 04:28:33;;;;;;;;;;;21.40;64.80;;;;;;1555075;75;769;-76
2022/12/07 04:30:35;;;;;;;;;;;21.40;64.70;;;;;;1548422;76;777;-77
2022/12/07 04:32:37;;;;;;;;;;;21.40;64.70;;;;;;1556026;75;1931;-78
2022/12/07 04:34:39;;;;;;;;;;;21.40;64.70;;;;;;1551322;76;643;-76
2022/12/07 04:36:41;;;;;;;;;;;21.40;64.60;;;;;;1550139;75;1156;-77
2022/12/07 04:38:43;;;;;;;;;;;21.40;64.70;;;;;;1548187;76;762;-77
2022/12/07 04:40:45;;;;;;;;;;;21.40;64.60;;;;;;1549904;76;752;-77
2022/12/07 04:42:47;;;;;;;;;;;21.40;64.50;;;;;;1543643;75;738;-73
2022/12/07 04:44:49;;;;;;;;;;;21.50;64.60;;;;;;1548022;76;695;-78
2022/12/07 04:46:50;;;;;;;;;;;21.40;64.40;;;;;;1550777;75;1155;-79
2022/12/07 04:48:53;;;;;;;;;;;21.50;64.70;;;;;;1549154;76;862;-79
2022/12/07 04:50:54;;;;;;;;;;;21.50;64.80;;;;;;1547179;76;677;-79
2022/12/07 04:52:56;;;;;;;;;;;21.40;64.60;;;;;;1547960;76;1940;-79
2022/12/07 04:54:58;;;;;;;;;;;21.40;64.70;;;;;;1549746;76;745;-77
2022/12/07 04:57:00;;;;;;;;;;;21.50;64.80;;;;;;1548967;75;1130;-78
2022/12/07 04:59:02;;;;;;;;;;;21.40;64.60;;;;;;1548545;76;700;-77
2022/12/07 05:01:04;;;;;;;;;;;21.40;64.60;;;;;;1549430;76;807;-77
2022/12/07 05:03:06;;;;;;;;;;;21.50;64.60;;;;;;1547056;76;757;-74
2022/12/07 05:05:08;;;;;;;;;;;21.50;64.60;;;;;;1548121;76;728;-76
2022/12/07 05:07:09;;;;;;;;;;;21.50;64.60;;;;;;1549936;75;1136;-78
2022/12/07 05:09:11;;;;;;;;;;;21.50;64.50;;;;;;1536864;76;795;-78
2022/12/07 05:13:33;;;;;;;;;;;21.50;64.60;;;;;;1540745;76;1903;-79
2022/12/07 05:15:35;;;;;;;;;;;21.50;64.50;;;;;;1538542;77;732;-79
2022/12/07 05:17:37;;;;;;;;;;;21.50;64.50;;;;;;1540460;76;1565;-79
2022/12/07 05:19:39;;;;;;;;;;;21.50;64.50;;;;;;1539731;77;720;-80
2022/12/07 05:21:40;;;;;;;;;;;21.50;64.50;;;;;;1536310;76;782;-78
2022/12/07 05:23:42;;;;;;;;;;;21.50;64.50;;;;;;1540382;77;728;-76
2022/12/07 05:25:45;;;;;;;;;;;21.50;64.60;;;;;;1536935;76;742;-78
2022/12/07 05:27:47;;;;;;;;;;;21.60;64.60;;;;;;1540771;76;601;-78
2022/12/07 05:29:50;;;;;;;;;;;21.60;64.50;;;;;;1540032;77;803;-77
2022/12/07 05:31:52;;;;;;;;;;;21.50;64.50;;;;;;1539783;77;764;-78
2022/12/07 05:33:54;;;;;;;;;;;21.50;64.50;;;;;;1537428;77;1917;-75
2022/12/07 05:35:55;;;;;;;;;;;21.50;64.60;;;;;;1537410;77;1183;-78
2022/12/07 05:37:58;;;;;;;;;;;21.50;64.60;;;;;;1538823;76;697;-78
2022/12/07 05:40:00;;;;;;;;;;;21.50;64.40;;;;;;1537809;77;722;-74
2022/12/07 05:42:14;;;;;;;;;;;21.50;64.40;;;;;;1544223;76;741;-76
2022/12/07 05:44:16;;;;;;;;;;;21.60;64.50;;;;;;1538715;77;678;-77
2022/12/07 05:46:18;;;;;;;;;;;21.50;64.50;;;;;;1536534;76;1126;-75
2022/12/07 05:48:20;;;;;;;;;;;21.50;64.50;;;;;;1538139;77;776;-79
2022/12/07 05:50:22;;;;;;;;;;;21.50;64.50;;;;;;1539182;76;754;-78
2022/12/07 05:52:24;;;;;;;;;;;21.50;64.40;;;;;;1537446;77;1960;-76
2022/12/07 05:54:25;;;;;;;;;;;21.50;64.50;;;;;;1539352;77;716;-78
2022/12/07 05:56:27;;;;;;;;;;;21.60;64.60;;;;;;1540315;77;1127;-78
2022/12/07 06:00:49;;;;;;;;;;;21.50;64.50;;;;;;1538924;76;727;-75
2022/12/07 06:02:51;;;;;;;;;;;21.50;64.50;;;;;;1538127;77;655;-77
2022/12/07 06:04:53;;;;;;;;;;;21.50;64.90;;;;;;1540532;76;806;-72
2022/12/07 06:06:55;;;;;;;;;;;21.60;65.00;;;;;;1538773;76;1129;-76
2022/12/07 06:08:57;;;;;;;;;;;21.60;64.80;;;;;;1537904;76;816;-72
2022/12/07 06:13:19;;;;;;;;;;;21.60;64.30;;;;;;1540349;76;1896;-74
2022/12/07 06:15:22;;;;;;;;;;;21.70;64.00;;;;;;1531243;76;1858;-74
2022/12/07 06:17:24;;;;;;;;;;;21.70;63.80;;;;;;1543323;76;1160;-75
2022/12/07 06:19:26;;;;;;;;;;;21.70;63.60;;;;;;1537424;76;795;-75
2022/12/07 06:21:28;;;;;;;;;;;21.70;63.40;;;;;;1535819;77;711;-76
2022/12/07 06:23:30;;;;;;;;;;;21.60;63.20;;;;;;1539749;76;809;-75
2022/12/07 06:25:32;;;;;;;;;;;21.70;63.20;;;;;;1539641;76;702;-74
2022/12/07 06:27:35;;;;;;;;;;;21.60;63.00;;;;;;1540468;76;1174;-72
2022/12/07 06:29:37;;;;;;;;;;;21.60;62.90;;;;;;1536120;76;699;-76
2022/12/07 06:31:38;;;;;;;;;;;21.70;63.00;;;;;;1540897;76;742;-74
2022/12/07 06:33:41;;;;;;;;;;;21.70;62.90;;;;;;1541475;76;1943;-74
2022/12/07 06:35:43;;;;;;;;;;;21.60;62.80;;;;;;1540478;76;743;-73
2022/12/07 06:37:45;;;;;;;;;;;21.70;62.90;;;;;;1541265;76;1144;-73
2022/12/07 06:39:46;;;;;;;;;;;21.60;62.80;;;;;;1541048;76;653;-74
2022/12/07 06:41:49;;;;;;;;;;;21.60;62.80;;;;;;1539775;76;659;-74
2022/12/07 06:43:50;;;;;;;;;;;21.50;62.80;;;;;;1540478;76;715;-75
2022/12/07 06:45:52;;;;;;;;;;;21.60;62.80;;;;;;1537891;76;1132;-74
2022/12/07 06:47:54;;;;;;;;;;;21.50;62.70;;;;;;1526720;77;651;-77
2022/12/07 06:49:56;;;;;;;;;;;21.50;62.70;;;;;;1537368;77;737;-75
2022/12/07 06:51:58;;;;;;;;;;;21.40;61.20;;;;;;1539685;76;936;-74
2022/12/07 06:54:00;;;;;;;;;;;21.40;61.90;;;;;;1537045;77;1931;-76
2022/12/07 06:56:02;;;;;;;;;;;21.40;62.00;;;;;;1538493;76;1157;-77
2022/12/07 06:58:03;;;;;;;;;;;21.40;62.10;;;;;;1539029;76;774;-76
2022/12/07 07:00:06;;;;;;;;;;;21.50;62.10;;;;;;1536093;77;860;-78
2022/12/07 07:02:09;;;;;;;;;;;21.40;62.00;;;;;;1536006;77;697;-78
2022/12/07 07:04:11;;;;;;;;;;;21.40;62.10;;;;;;1540016;77;684;-78
2022/12/07 07:06:13;;;;;;;;;;;21.30;62.10;;;;;;1537636;76;1127;-78
2022/12/07 07:08:15;;;;;;;;;;;21.30;62.20;;;;;;1538512;77;760;-77
2022/12/07 07:10:16;;;;;;;;;;;21.30;62.20;;;;;;1536185;76;1293;-76
2022/12/07 07:12:18;;;;;;;;;;;21.30;62.20;;;;;;1542862;76;671;-79
2022/12/07 07:14:21;;;;;;;;;;;21.20;62.20;;;;;;1540879;76;1943;-80
2022/12/07 07:16:24;;;;;;;;;;;21.20;62.30;;;;;;1540040;76;1144;-75
2022/12/07 07:18:26;;;;;;;;;;;21.20;62.30;;;;;;1540018;76;742;-79
2022/12/07 07:20:27;;;;;;;;;;;21.20;62.30;;;;;;1540362;76;737;-79
2022/12/07 07:22:29;;;;;;;;;;;21.10;62.30;;;;;;1537982;76;764;-79
2022/12/07 07:24:31;;;;;;;;;;;21.20;62.30;;;;;;1539842;76;732;-78
2022/12/07 07:26:33;;;;;;;;;;;21.10;62.30;;;;;;1538775;76;1172;-80
2022/12/07 07:28:35;;;;;;;;;;;21.10;62.30;;;;;;1540767;76;716;-76
2022/12/07 07:30:37;;;;;;;;;;;21.20;62.40;;;;;;1540056;76;878;-77
2022/12/07 07:32:39;;;;;;;;;;;21.10;62.30;;;;;;1543280;76;709;-78
2022/12/07 07:34:40;;;;;;;;;;;21.00;62.20;;;;;;1539512;76;1923;-77
2022/12/07 07:36:42;;;;;;;;;;;21.00;62.30;;;;;;1540130;75;1138;-78
2022/12/07 07:38:44;;;;;;;;;;;21.00;62.30;;;;;;1541226;76;767;-77
2022/12/07 07:40:46;;;;;;;;;;;21.10;62.40;;;;;;1539149;76;722;-78
2022/12/07 07:42:48;;;;;;;;;;;21.10;62.50;;;;;;1539464;76;757;-76
2022/12/07 07:44:50;;;;;;;;;;;21.00;62.40;;;;;;1537104;76;813;-79
2022/12/07 07:46:52;;;;;;;;;;;20.90;62.50;;;;;;1540719;76;1133;-76
2022/12/07 07:48:54;;;;;;;;;;;21.00;62.50;;;;;;1541884;76;789;-78
2022/12/07 07:50:56;;;;;;;;;;;21.00;62.50;;;;;;1537732;76;780;-78
2022/12/07 07:52:58;;;;;;;;;;;21.00;62.60;;;;;;1540843;76;1940;-78
2022/12/07 07:55:00;;;;;;;;;;;20.90;62.60;;;;;;1540802;76;747;-78
2022/12/07 07:57:01;;;;;;;;;;;21.00;62.70;;;;;;1539447;76;1197;-79
2022/12/07 07:59:03;;;;;;;;;;;20.90;62.70;;;;;;1540183;76;763;-79
2022/12/07 08:01:06;;;;;;;;;;;20.90;62.70;;;;;;1540489;76;771;-79
2022/12/07 08:03:07;;;;;;;;;;;20.90;62.70;;;;;;1540221;76;771;-77
2022/12/07 08:05:10;;;;;;;;;;;20.90;62.60;;;;;;1538376;77;793;-79
2022/12/07 08:07:13;;;;;;;;;;;20.90;62.60;;;;;;1523469;71;2119;-75
2022/12/07 08:09:15;;;;;;;;;;;20.90;62.60;;;;;;1490186;78;730;-73
2022/12/07 08:11:17;;;;;;;;;;;20.80;62.50;;;;;;1487698;78;882;-74
2022/12/07 08:13:19;;;;;;;;;;;20.80;62.40;;;;;;1494666;78;1926;-76
2022/12/07 08:15:21;;;;;;;;;;;20.80;62.50;;;;;;1490675;78;792;-74
2022/12/07 08:17:22;;;;;;;;;;;20.80;62.50;;;;;;1494331;77;1222;-73
2022/12/07 08:19:24;;;;;;;;;;;20.80;62.40;;;;;;1494894;78;700;-72
2022/12/07 08:21:26;;;;;;;;;;;20.80;62.30;;;;;;1486880;78;744;-75
2022/12/07 08:23:28;;;;;;;;;;;20.80;62.40;;;;;;1493911;78;729;-77
2022/12/07 08:25:30;;;;;;;;;;;20.80;62.50;;;;;;1486390;78;587;-73
2022/12/07 08:27:32;;;;;;;;;;;20.70;62.40;;;;;;1499226;78;1217;-75
2022/12/07 08:29:34;;;;;;;;;;;20.80;62.30;;;;;;1491879;78;741;-71
2022/12/07 08:31:36;;;;;;;;;;;20.80;62.60;;;;;;1492021;78;716;-73
2022/12/07 08:33:37;;;;;;;;;;;20.70;62.70;;;;;;1496059;78;1934;-71
2022/12/07 08:35:39;;;;;;;;;;;20.70;62.70;;;;;;1490323;78;782;-74
2022/12/07 08:37:41;;;;;;;;;;;20.70;62.70;;;;;;1493753;78;1100;-74
2022/12/07 08:39:43;;;;;;;;;;;20.70;62.80;;;;;;1495896;78;727;-74
2022/12/07 08:41:45;;;;;;;;;;;20.70;62.80;;;;;;1489655;78;744;-74
2022/12/07 08:43:47;;;;;;;;;;;20.70;62.80;;;;;;1491653;78;571;-73
2022/12/07 08:45:49;;;;;;;;;;;20.70;62.90;;;;;;1492168;78;602;-73
2022/12/07 08:47:52;;;;;;;;;;;20.70;63.00;;;;;;1490795;78;1131;-73
2022/12/07 08:49:54;;;;;;;;;;;20.70;63.00;;;;;;1493713;78;731;-72
2022/12/07 08:51:56;;;;;;;;;;;20.70;63.10;;;;;;1493928;78;734;-71
2022/12/07 08:53:58;;;;;;;;;;;20.60;63.00;;;;;;1492095;78;1956;-73
2022/12/07 08:56:00;;;;;;;;;;;20.70;63.10;;;;;;1492457;78;907;-73
2022/12/07 08:58:02;;;;;;;;;;;20.60;63.00;;;;;;1494038;78;1136;-74
2022/12/07 09:00:05;;;;;;;;;;;20.60;62.90;;;;;;1491533;78;665;-72
2022/12/07 09:02:07;;;;;;;;;;;20.60;63.00;;;;;;1489444;78;683;-73
2022/12/07 09:04:09;;;;;;;;;;;20.60;63.10;;;;;;1487174;78;653;-73
2022/12/07 09:06:10;;;;;;;;;;;20.60;63.10;;;;;;1492703;78;726;-73
2022/12/07 09:08:12;;;;;;;;;;;20.60;63.10;;;;;;1487852;78;1113;-73
2022/12/07 09:10:14;;;;;;;;;;;20.60;63.20;;;;;;1491017;78;606;-73
2022/12/07 09:12:16;;;;;;;;;;;20.60;63.20;;;;;;1493500;78;733;-71
2022/12/07 09:14:18;;;;;;;;;;;20.50;63.30;;;;;;1489989;78;1934;-74
2022/12/07 09:16:20;;;;;;;;;;;20.60;63.30;;;;;;1491830;78;731;-73
2022/12/07 09:18:22;;;;;;;;;;;20.50;63.30;;;;;;1489226;78;1150;-73
2022/12/07 09:20:24;;;;;;;;;;;20.50;63.30;;;;;;1490013;78;715;-73
2022/12/07 09:22:27;;;;;;;;;;;20.50;63.40;;;;;;1493380;78;764;-73
2022/12/07 09:24:29;;;;;;;;;;;20.50;63.40;;;;;;1489912;78;719;-73
2022/12/07 09:26:31;;;;;;;;;;;20.50;63.40;;;;;;1492110;78;1196;-73
2022/12/07 09:28:33;;;;;;;;;;;20.50;63.30;;;;;;1491749;78;668;-74
2022/12/07 09:30:35;;;;;;;;;;;20.50;63.40;;;;;;1500927;78;749;-76
2022/12/07 09:32:37;;;;;;;;;;;20.50;63.30;;;;;;1491768;78;731;-74
2022/12/07 09:34:39;;;;;;;;;;;20.50;63.40;;;;;;1492519;78;1928;-73
2022/12/07 09:36:42;;;;;;;;;;;20.50;63.40;;;;;;1489939;78;1120;-73
2022/12/07 09:38:44;;;;;;;;;;;20.50;63.40;;;;;;1494872;78;716;-72
2022/12/07 09:40:46;;;;;;;;;;;20.50;63.40;;;;;;1493104;78;733;-75
2022/12/07 09:42:48;;;;;;;;;;;20.40;63.30;;;;;;1488865;78;747;-74
2022/12/07 09:44:50;;;;;;;;;;;20.50;63.40;;;;;;1491322;78;796;-73
2022/12/07 09:46:53;;;;;;;;;;;20.50;63.40;;;;;;1490180;78;1216;-79
2022/12/07 09:48:54;;;;;;;;;;;20.40;63.40;;;;;;1494331;78;780;-74
2022/12/07 09:50:57;;;;;;;;;;;20.40;63.40;;;;;;1489968;78;780;-71
2022/12/07 09:53:07;;;;;;;;;;;20.50;63.40;;;;;;1490401;78;714;-72
2022/12/07 09:55:10;;;;;;;;;;;20.50;63.50;;;;;;1490855;78;1948;-73
2022/12/07 09:57:15;;;;;;;;;;;20.40;63.40;;;;;;1487495;77;1135;-74
2022/12/07 09:59:18;;;;;;;;;;;20.40;63.40;;;;;;1495948;78;1540;-74
2022/12/07 10:01:20;;;;;;;;;;;20.40;63.50;;;;;;1496194;77;699;-75
2022/12/07 10:03:22;;;;;;;;;;;20.40;63.40;;;;;;1491158;78;703;-73
2022/12/07 10:05:25;;;;;;;;;;;20.40;63.40;;;;;;1480240;78;655;-73
2022/12/07 10:07:27;;;;;;;;;;;20.40;63.50;;;;;;1495248;77;1166;-74
2022/12/07 10:09:34;;;;;;;;;;;20.30;63.40;;;;;;1493653;78;769;-70
2022/12/07 10:11:32;;;;;;;;;;;20.30;63.40;;;;;;1492870;78;1164;-76
2022/12/07 10:13:38;;;;;;;;;;;20.30;63.40;;;;;;1492682;78;733;-74
2022/12/07 10:15:53;;;;;;;;;;;20.40;63.50;;;;;;1492248;78;1967;-73
2022/12/07 10:17:55;;;;;;;;;;;20.40;63.50;;;;;;1489665;77;1203;-74
2022/12/07 10:20:02;;;;;;;;;;;20.30;63.50;;;;;;1493344;78;715;-74
2022/12/07 10:22:08;;;;;;;;;;;20.30;63.60;;;;;;1475597;78;1059;-71
2022/12/07 10:24:14;;;;;;;;;;;20.40;63.60;;;;;;1493454;78;777;-75
2022/12/07 10:26:27;;;;;;;;;;;20.30;63.50;;;;;;1488704;78;753;-70
2022/12/07 10:28:31;;;;;;;;;;;20.30;63.50;;;;;;1485424;78;715;-73
2022/12/07 10:30:33;;;;;;;;;;;20.30;63.50;;;;;;1491987;78;1145;-73
2022/12/07 10:32:35;;;;;;;;;;;20.30;63.60;;;;;;1496664;78;717;-73
2022/12/07 10:34:37;;;;;;;;;;;20.30;63.50;;;;;;1490842;78;1926;-73
2022/12/07 10:36:39;;;;;;;;;;;20.30;63.50;;;;;;1477873;78;1145;-74
2022/12/07 10:38:42;;;;;;;;;;;20.30;63.50;;;;;;1489781;78;700;-74
2022/12/07 10:40:44;;;;;;;;;;;20.30;63.50;;;;;;1490284;78;1116;-74
2022/12/07 10:42:46;;;;;;;;;;;20.30;63.50;;;;;;1490584;78;748;-77
2022/12/07 10:44:49;;;;;;;;;;;20.30;63.60;;;;;;1460765;79;1159;-72
2022/12/07 10:47:04;;;;;;;;;;;20.30;63.70;;;;;;1490786;78;1145;-71
2022/12/07 10:49:08;;;;;;;;;;;20.30;63.90;;;;;;1483917;78;1148;-74
2022/12/07 10:51:11;;;;;;;;;;;20.30;64.10;;;;;;1485074;78;1176;-75
2022/12/07 10:53:30;;;;;;;;;;;20.30;64.40;;;;;;1493752;78;762;-73
2022/12/07 10:55:33;;;;;;;;;;;20.30;64.70;;;;;;1485754;78;1940;-72
2022/12/07 10:57:42;;;;;;;;;;;20.30;64.50;;;;;;1492557;78;1165;-73
2022/12/07 10:59:49;;;;;;;;;;;20.30;64.70;;;;;;1495550;77;1157;-75
2022/12/07 11:02:08;;;;;;;;;;;20.30;64.70;;;;;;1490704;78;1167;-74
2022/12/07 11:04:29;;;;;;;;;;;20.30;64.60;;;;;;1492394;78;760;-76
2022/12/07 11:06:32;;;;;;;;;;;20.20;64.60;;;;;;1490223;78;1127;-75
2022/12/07 11:08:39;;;;;;;;;;;20.30;64.60;;;;;;1491156;78;1164;-73
2022/12/07 11:10:56;;;;;;;;;;;20.30;64.70;;;;;;1489210;78;707;-71
2022/12/07 11:13:16;;;;;;;;;;;20.30;64.70;;;;;;1497419;78;720;-72
2022/12/07 11:15:18;;;;;;;;;;;20.30;64.70;;;;;;1489071;78;1984;-75
2022/12/07 11:17:22;;;;;;;;;;;20.30;64.70;;;;;;1491206;77;1138;-73
2022/12/07 11:19:35;;;;;;;;;;;20.30;64.70;;;;;;1491840;78;710;-74
2022/12/07 11:21:44;;;;;;;;;;;20.30;64.70;;;;;;1489818;78;672;-73
2022/12/07 11:24:03;;;;;;;;;;;20.20;64.60;;;;;;1488652;78;997;-74
2022/12/07 11:26:09;;;;;;;;;;;20.30;64.70;;;;;;1425669;82;1093;-72
2022/12/07 11:28:16;;;;;;;;;;;20.30;64.70;;;;;;1449292;78;1214;-72
2022/12/07 11:30:22;;;;;;;;;;;20.20;64.70;;;;;;1484852;78;816;-72
2022/12/07 11:32:25;;;;;;;;;;;20.30;64.80;;;;;;1489347;78;718;-71
2022/12/07 11:34:44;;;;;;;;;;;20.20;64.70;;;;;;1485141;78;1940;-73
2022/12/07 11:36:50;;;;;;;;;;;20.30;64.80;;;;;;1485250;78;1172;-72
2022/12/07 11:38:53;;;;;;;;;;;20.30;64.80;;;;;;1485863;78;865;-73
2022/12/07 11:41:12;;;;;;;;;;;20.20;64.70;;;;;;1485663;78;986;-78
2022/12/07 11:43:18;;;;;;;;;;;20.30;64.80;;;;;;1482986;78;1405;-74
2022/12/07 11:45:27;;;;;;;;;;;20.30;64.80;;;;;;1491427;78;713;-73
2022/12/07 11:47:33;;;;;;;;;;;20.30;64.80;;;;;;1496195;77;1100;-73
2022/12/07 11:49:40;;;;;;;;;;;20.30;64.80;;;;;;1492471;78;725;-72
2022/12/07 11:51:42;;;;;;;;;;;20.30;64.80;;;;;;1489728;78;1475;-73
2022/12/07 11:53:45;;;;;;;;;;;20.20;64.70;;;;;;1492899;78;757;-74
2022/12/07 11:55:51;;;;;;;;;;;20.20;64.70;;;;;;1489994;78;1930;-72
2022/12/07 11:57:54;;;;;;;;;;;20.20;64.70;;;;;;1490505;78;2154;-74
2022/12/07 12:00:04;;;;;;;;;;;20.20;64.80;;;;;;1489882;78;713;-74
2022/12/07 12:02:10;;;;;;;;;;;20.30;64.80;;;;;;1495075;78;793;-74
2022/12/07 12:04:14;;;;;;;;;;;20.30;64.80;;;;;;1464795;78;1035;-74
2022/12/07 12:06:16;;;;;;;;;;;20.20;64.70;;;;;;1489905;78;719;-73
2022/12/07 12:08:22;;;;;;;;;;;20.20;64.80;;;;;;1491067;78;1101;-74
2022/12/07 12:10:29;;;;;;;;;;;20.20;64.80;;;;;;1487827;78;1016;-73
2022/12/07 12:12:38;;;;;;;;;;;20.30;64.90;;;;;;1492895;78;1150;-74
2022/12/07 12:14:51;;;;;;;;;;;20.20;64.80;;;;;;1492924;78;1928;-73
2022/12/07 12:16:54;;;;;;;;;;;20.20;64.70;;;;;;1489722;78;1172;-74
2022/12/07 12:19:01;;;;;;;;;;;20.20;64.70;;;;;;1488612;78;1152;-73
2022/12/07 12:21:04;;;;;;;;;;;20.20;64.70;;;;;;1501444;78;1163;-74
2022/12/07 12:23:19;;;;;;;;;;;20.20;64.70;;;;;;1489195;78;718;-74